createdAt,value
2023-03-03T00:01:04.198Z,76.76
2023-03-03T00:05:55.954Z,76.47
2023-03-03T00:10:47.863Z,76.07
2023-03-03T00:15:39.734Z,76.27
2023-03-03T00:20:34.212Z,76.77
2023-03-03T00:25:29.071Z,77.10
2023-03-03T00:30:25.646Z,76.83
2023-03-03T00:35:30.628Z,77.61
2023-03-03T00:40:25.447Z,77.73
2023-03-03T00:45:48.048Z,77.85
2023-03-03T00:50:40.425Z,78.05
2023-03-03T00:55:33.471Z,77.80
2023-03-03T01:00:25.144Z,78.15
2023-03-03T01:05:18.521Z,77.74
2023-03-03T01:23:10.440Z,77.54
2023-03-03T01:28:02.160Z,77.79
2023-03-03T01:32:53.871Z,78.06
2023-03-03T01:37:45.992Z,78.17
2023-03-03T01:42:38.729Z,78.29
2023-03-03T01:47:34.710Z,77.70
2023-03-03T01:52:40.332Z,77.77
2023-03-03T01:57:40.079Z,78.14
2023-03-03T02:02:32.904Z,78.34
2023-03-03T02:07:28.229Z,78.35
2023-03-03T02:12:23.625Z,78.68
2023-03-03T02:17:15.260Z,78.50
2023-03-03T02:22:07.568Z,77.47
2023-03-03T02:26:59.351Z,77.14
2023-03-03T02:31:51.212Z,76.82
2023-03-03T02:36:42.836Z,77.15
2023-03-03T02:41:37.341Z,76.40
2023-03-03T02:59:01.153Z,76.66
2023-03-03T03:03:52.953Z,77.06
2023-03-03T03:08:44.649Z,76.95
2023-03-03T03:13:36.275Z,77.03
2023-03-03T03:18:28.297Z,77.18
2023-03-03T03:23:22.053Z,76.48
2023-03-03T03:28:15.819Z,76.68
2023-03-03T03:33:08.452Z,77.02
2023-03-03T03:38:00.196Z,77.47
2023-03-03T03:42:51.893Z,77.75
2023-03-03T03:47:43.760Z,77.54
2023-03-03T03:52:35.614Z,77.13
2023-03-03T03:57:27.595Z,77.29
2023-03-03T04:02:19.647Z,76.93
2023-03-03T04:07:11.741Z,76.42
2023-03-03T04:12:03.625Z,76.34
2023-03-03T04:16:55.183Z,76.23
2023-03-03T04:21:46.859Z,76.66
2023-03-03T04:26:38.417Z,76.16
2023-03-03T04:31:30.165Z,76.11
2023-03-03T04:36:21.924Z,75.93
2023-03-03T04:41:13.499Z,76.07
2023-03-03T04:46:05.291Z,76.26
2023-03-03T04:50:56.914Z,76.31
2023-03-03T04:55:54.134Z,75.87
2023-03-03T05:00:54.660Z,76.84
2023-03-03T05:05:48.018Z,76.73
2023-03-03T05:10:39.822Z,76.90
2023-03-03T05:15:31.721Z,76.99
2023-03-03T05:20:24.611Z,76.91
2023-03-03T05:25:16.536Z,77.12
2023-03-03T05:30:08.901Z,77.04
2023-03-03T05:35:00.552Z,76.89
2023-03-03T05:39:52.203Z,76.50
2023-03-03T05:44:43.975Z,76.97
2023-03-03T05:49:35.610Z,76.75
2023-03-03T05:54:27.311Z,76.53
2023-03-03T05:59:19.748Z,76.41
2023-03-03T06:04:11.376Z,76.62
2023-03-03T06:09:03.225Z,76.47
2023-03-03T06:13:54.864Z,76.42
2023-03-03T06:18:46.744Z,75.87
2023-03-03T06:23:39.096Z,76.42
2023-03-03T06:28:30.656Z,77.14
2023-03-03T06:33:23.084Z,77.13
2023-03-03T06:38:14.683Z,77.10
2023-03-03T06:43:06.433Z,77.02
2023-03-03T06:47:58.177Z,76.56
2023-03-03T06:52:50.280Z,76.77
2023-03-03T06:57:41.905Z,76.01
2023-03-03T07:02:33.590Z,76.25
2023-03-03T07:07:26.698Z,76.23
2023-03-03T07:12:22.303Z,76.15
2023-03-03T07:17:26.106Z,76.33
2023-03-03T07:22:20.310Z,76.33
2023-03-03T07:27:18.592Z,76.19
2023-03-03T07:32:19.637Z,76.49
2023-03-03T07:37:41.323Z,76.48
2023-03-03T07:42:44.290Z,77.16
2023-03-03T07:47:39.687Z,76.87
2023-03-03T07:52:40.372Z,77.18
2023-03-03T07:57:39.890Z,76.71
2023-03-03T08:02:56.446Z,76.92
2023-03-03T08:07:50.717Z,76.18
2023-03-03T08:12:43.013Z,76.57
2023-03-03T08:17:39.131Z,76.71
2023-03-03T08:22:38.293Z,76.75
2023-03-03T08:27:30.085Z,76.40
2023-03-03T08:32:21.896Z,75.67
2023-03-03T08:37:13.536Z,75.56
2023-03-03T08:42:05.182Z,75.82
2023-03-03T08:46:56.831Z,75.83
2023-03-03T08:51:48.668Z,76.89
2023-03-03T08:56:40.495Z,76.34
2023-03-03T09:01:33.329Z,75.88
2023-03-03T09:06:25.113Z,75.89
2023-03-03T09:11:24.894Z,75.79
2023-03-03T09:16:16.614Z,75.44
2023-03-03T09:21:29.658Z,75.81
2023-03-03T09:26:28.310Z,76.35
2023-03-03T09:31:36.644Z,76.36
2023-03-03T09:36:36.752Z,76.60
2023-03-03T09:41:53.501Z,76.56
2023-03-03T09:46:51.948Z,76.61
2023-03-03T09:51:58.515Z,76.53
2023-03-03T09:57:05.581Z,76.29
2023-03-03T10:02:21.358Z,75.94
2023-03-03T10:07:45.158Z,75.61
2023-03-03T10:12:44.580Z,75.29
2023-03-03T10:18:08.871Z,75.19
2023-03-03T10:23:21.279Z,73.81
2023-03-03T10:28:42.117Z,73.88
2023-03-03T10:33:42.789Z,72.89
2023-03-03T10:38:56.342Z,73.10
2023-03-03T10:44:26.174Z,73.70
2023-03-03T10:49:46.836Z,73.90
2023-03-03T10:55:09.165Z,73.94
2023-03-03T11:00:09.873Z,73.65
2023-03-03T11:05:22.527Z,73.38
2023-03-03T11:10:46.451Z,73.34
2023-03-03T11:15:45.206Z,73.37
2023-03-03T11:20:41.190Z,73.35
2023-03-03T11:25:47.328Z,73.09
2023-03-03T11:30:45.261Z,73.07
2023-03-03T11:35:51.998Z,73.02
2023-03-03T11:40:55.922Z,73.01
2023-03-03T11:46:16.702Z,72.76
2023-03-03T11:51:18.239Z,72.88
2023-03-03T11:56:23.769Z,72.58
2023-03-03T12:01:22.985Z,73.32
2023-03-03T12:06:42.238Z,72.99
2023-03-03T12:11:47.125Z,73.68
2023-03-03T12:16:54.440Z,73.60
2023-03-03T12:22:10.528Z,73.83
2023-03-03T12:27:19.605Z,73.71
2023-03-03T12:32:26.285Z,73.53
2023-03-03T12:37:35.906Z,73.34
2023-03-03T12:42:54.292Z,73.90
2023-03-03T12:48:00.431Z,73.62
2023-03-03T12:53:25.967Z,73.38
2023-03-03T12:58:56.462Z,73.46
2023-03-03T13:04:39.285Z,72.80
2023-03-03T13:10:02.217Z,72.60
2023-03-03T13:15:05.458Z,72.29
2023-03-03T13:20:04.757Z,72.51
2023-03-03T13:25:00.510Z,72.79
2023-03-03T13:30:00.961Z,72.88
2023-03-03T13:34:58.707Z,72.43
2023-03-03T13:40:05.648Z,72.00
2023-03-03T13:44:57.840Z,71.65
2023-03-03T13:50:05.753Z,70.65
2023-03-03T13:55:28.691Z,71.17
2023-03-03T14:00:38.810Z,71.34
2023-03-03T14:05:46.916Z,70.21
2023-03-03T14:10:49.169Z,70.69
2023-03-03T14:16:09.928Z,71.10
2023-03-03T14:21:12.364Z,70.55
2023-03-03T14:26:03.996Z,70.45
2023-03-03T14:30:58.032Z,69.72
2023-03-03T14:36:03.557Z,70.01
2023-03-03T14:41:11.646Z,70.85
2023-03-03T14:46:31.684Z,69.99
2023-03-03T14:51:29.068Z,70.40
2023-03-03T14:56:39.456Z,69.93
2023-03-03T15:01:36.132Z,70.55
2023-03-03T15:06:46.141Z,70.19
2023-03-03T15:11:37.784Z,70.53
2023-03-03T15:16:34.404Z,70.49
2023-03-03T15:21:34.193Z,70.64
2023-03-03T15:26:50.393Z,70.20
2023-03-03T15:32:07.413Z,69.95
2023-03-03T15:37:18.037Z,69.00
2023-03-03T15:42:18.555Z,68.34
2023-03-03T15:47:51.776Z,67.81
2023-03-03T15:52:56.767Z,68.30
2023-03-03T15:58:12.036Z,68.75
2023-03-03T16:03:15.432Z,67.49
2023-03-03T16:08:07.144Z,68.21
2023-03-03T16:13:43.741Z,67.83
2023-03-03T16:18:58.546Z,68.08
2023-03-03T16:23:56.404Z,68.29
2023-03-03T16:28:51.070Z,67.62
2023-03-03T16:33:54.785Z,67.70
2023-03-03T16:39:15.192Z,67.75
2023-03-03T16:44:19.664Z,67.74
2023-03-03T16:49:33.067Z,68.88
2023-03-03T16:54:31.489Z,68.41
2023-03-03T16:59:52.495Z,68.30
2023-03-03T17:04:59.190Z,69.68
2023-03-03T17:09:53.594Z,70.19
2023-03-03T17:15:17.356Z,71.52
2023-03-03T17:20:12.183Z,71.14
2023-03-03T17:25:30.630Z,72.03
2023-03-03T17:30:44.099Z,72.39
2023-03-03T17:35:47.871Z,71.49
2023-03-03T17:40:45.754Z,71.95
2023-03-03T17:45:42.456Z,72.11
2023-03-03T17:51:10.845Z,72.24
2023-03-03T17:56:28.360Z,72.99
2023-03-03T18:01:37.515Z,72.89
2023-03-03T18:06:56.530Z,73.09
2023-03-03T18:12:17.309Z,72.89
2023-03-03T18:17:20.860Z,72.50
2023-03-03T18:22:32.292Z,73.00
2023-03-03T18:27:23.782Z,73.94
2023-03-03T18:32:22.339Z,73.74
2023-03-03T18:37:40.474Z,73.51
2023-03-03T18:42:39.501Z,74.36
2023-03-03T18:48:01.819Z,73.84
2023-03-03T18:53:27.384Z,74.25
2023-03-03T18:58:19.020Z,73.93
2023-03-03T19:03:25.219Z,74.64
2023-03-03T19:08:21.841Z,73.99
2023-03-03T19:13:35.146Z,73.85
2023-03-03T19:18:34.217Z,74.88
2023-03-03T19:23:50.157Z,74.74
2023-03-03T19:28:55.952Z,74.65
2023-03-03T19:33:53.479Z,74.49
2023-03-03T19:39:14.181Z,74.38
2023-03-03T19:44:12.699Z,74.38
2023-03-03T19:49:16.279Z,75.05
2023-03-03T19:54:44.189Z,74.27
2023-03-03T20:00:34.312Z,74.69
2023-03-03T20:05:30.450Z,75.04
2023-03-03T20:10:50.744Z,74.69
2023-03-03T20:15:48.477Z,74.62
2023-03-03T20:21:01.537Z,74.51
2023-03-03T20:26:01.773Z,74.92
2023-03-03T20:31:06.474Z,75.15
2023-03-03T20:36:36.920Z,75.29
2023-03-03T20:41:56.198Z,75.30
2023-03-03T20:47:10.351Z,74.76
2023-03-03T20:52:27.617Z,74.91
2023-03-03T20:57:33.909Z,74.26
2023-03-03T21:02:39.879Z,74.36
2023-03-03T21:07:34.032Z,75.12
2023-03-03T21:12:29.286Z,75.50
2023-03-03T21:17:27.370Z,75.25
2023-03-03T21:22:19.088Z,75.71
2023-03-03T21:27:25.735Z,75.30
2023-03-03T21:32:35.588Z,75.61
2023-03-03T21:38:05.742Z,76.03
2023-03-03T21:43:00.075Z,76.01
2023-03-03T21:47:54.971Z,75.62
2023-03-03T21:52:46.579Z,76.31
2023-03-03T21:57:38.186Z,76.27
2023-03-03T22:02:30.008Z,76.13
2023-03-03T22:07:21.708Z,76.21
2023-03-03T22:12:13.344Z,75.94
2023-03-03T22:17:05.048Z,75.64
2023-03-03T22:21:57.064Z,75.30
2023-03-03T22:26:48.803Z,74.69
2023-03-03T22:31:40.432Z,75.04
2023-03-03T22:36:32.474Z,75.31
2023-03-03T22:41:24.104Z,75.04
2023-03-03T22:46:15.757Z,75.16
2023-03-03T22:51:07.366Z,75.17
2023-03-03T22:55:59.036Z,75.91
2023-03-03T23:00:50.719Z,75.80
2023-03-03T23:05:43.011Z,76.08
2023-03-03T23:10:35.178Z,76.11
2023-03-03T23:15:27.000Z,76.21
2023-03-03T23:20:24.461Z,76.50
2023-03-03T23:25:16.640Z,76.62
2023-03-03T23:30:10.059Z,76.74
2023-03-03T23:35:01.777Z,76.21
2023-03-03T23:39:53.498Z,75.91
2023-03-03T23:44:45.545Z,75.39
2023-03-03T23:49:37.765Z,73.53
2023-03-03T23:54:29.405Z,72.73
2023-03-03T23:59:21.520Z,72.93
